createdAt,value
2018-05-27T00:00:07.455Z,89.94
2018-05-27T00:01:07.393Z,89.47
2018-05-27T00:02:07.293Z,89.18
2018-05-27T00:03:07.219Z,89.79
2018-05-27T00:04:07.144Z,89.89
2018-05-27T00:05:07.069Z,89.79
2018-05-27T00:06:06.985Z,89.89
2018-05-27T00:07:06.905Z,89.79
2018-05-27T00:08:06.834Z,90.04
2018-05-27T00:09:06.757Z,89.56
2018-05-27T00:10:06.694Z,89.75
2018-05-27T00:11:06.594Z,89.47
2018-05-27T00:12:06.519Z,89.47
2018-05-27T00:13:06.445Z,89.47
2018-05-27T00:14:06.374Z,89.56
2018-05-27T00:15:06.283Z,89.27
2018-05-27T00:16:06.206Z,89.18
2018-05-27T00:17:06.147Z,89.47
2018-05-27T00:18:06.056Z,89.85
2018-05-27T00:19:05.982Z,89.85
2018-05-27T00:20:05.898Z,89.37
2018-05-27T00:21:05.820Z,89.47
2018-05-27T00:22:05.746Z,90.04
2018-05-27T00:23:05.671Z,89.75
2018-05-27T00:24:05.583Z,89.75
2018-05-27T00:25:05.508Z,89.75
2018-05-27T00:26:05.435Z,89.75
2018-05-27T00:27:05.358Z,89.75
2018-05-27T00:28:05.271Z,89.85
2018-05-27T00:29:05.200Z,90.33
2018-05-27T00:30:05.122Z,90.33
2018-05-27T00:31:05.048Z,90.33
2018-05-27T00:32:04.975Z,90.14
2018-05-27T00:33:04.884Z,90.04
2018-05-27T00:34:04.809Z,90.04
2018-05-27T00:35:04.734Z,90.14
2018-05-27T00:36:04.660Z,89.94
2018-05-27T00:37:04.573Z,90.14
2018-05-27T00:38:04.498Z,89.85
2018-05-27T00:39:04.428Z,90.33
2018-05-27T00:40:04.350Z,90.04
2018-05-27T00:41:04.260Z,90.23
2018-05-27T00:42:04.189Z,90.33
2018-05-27T00:43:04.110Z,89.85
2018-05-27T00:44:04.035Z,90.14
2018-05-27T00:45:03.953Z,90.52
2018-05-27T00:46:03.876Z,90.42
2018-05-27T00:47:03.799Z,90.33
2018-05-27T00:48:03.723Z,90.56
2018-05-27T00:49:03.637Z,90.75
2018-05-27T00:50:03.563Z,90.75
2018-05-27T00:51:03.485Z,90.95
2018-05-27T00:52:03.411Z,90.85
2018-05-27T00:53:03.335Z,90.47
2018-05-27T00:54:03.249Z,90.81
2018-05-27T00:55:03.173Z,91.05
2018-05-27T00:56:03.100Z,90.90
2018-05-27T00:57:03.024Z,90.52
2018-05-27T00:58:02.936Z,90.81
2018-05-27T00:59:02.871Z,91.48
2018-05-27T01:00:02.788Z,90.95
2018-05-27T01:01:02.711Z,90.71
2018-05-27T01:02:02.625Z,91.09
2018-05-27T01:03:02.550Z,90.90
2018-05-27T01:04:02.475Z,90.71
2018-05-27T01:05:02.401Z,90.52
2018-05-27T01:06:02.313Z,90.61
2018-05-27T01:07:02.250Z,90.71
2018-05-27T01:08:02.162Z,89.75
2018-05-27T01:09:02.087Z,90.33
2018-05-27T01:10:02.002Z,89.94
2018-05-27T01:11:01.929Z,90.23
2018-05-27T01:12:01.857Z,90.42
2018-05-27T01:13:01.782Z,90.52
2018-05-27T01:14:01.690Z,90.52
2018-05-27T01:15:01.617Z,90.71
2018-05-27T01:16:01.538Z,90.33
2018-05-27T01:17:01.463Z,90.42
2018-05-27T01:18:01.388Z,90.23
2018-05-27T01:19:01.302Z,90.04
2018-05-27T01:20:01.233Z,89.94
2018-05-27T01:21:01.152Z,89.90
2018-05-27T01:22:01.065Z,89.90
2018-05-27T01:23:01.004Z,89.42
2018-05-27T01:24:00.914Z,89.71
2018-05-27T01:25:00.839Z,89.61
2018-05-27T01:26:00.763Z,89.42
2018-05-27T01:27:00.677Z,89.13
2018-05-27T01:28:00.603Z,89.23
2018-05-27T01:29:00.529Z,89.32
2018-05-27T01:30:00.453Z,89.23
2018-05-27T01:31:00.365Z,89.42
2018-05-27T01:32:00.289Z,89.23
2018-05-27T01:33:00.215Z,89.23
2018-05-27T01:34:00.128Z,89.04
2018-05-27T01:35:00.054Z,89.23
2018-05-27T01:35:59.982Z,89.23
2018-05-27T01:36:59.905Z,89.32
2018-05-27T01:37:59.815Z,89.51
2018-05-27T01:38:59.740Z,89.23
2018-05-27T01:39:59.666Z,89.32
2018-05-27T01:40:59.603Z,89.42
2018-05-27T01:41:59.504Z,89.23
2018-05-27T01:42:59.429Z,89.04
2018-05-27T01:43:59.356Z,89.23
2018-05-27T01:44:59.279Z,89.51
2018-05-27T01:45:59.190Z,89.23
2018-05-27T01:46:59.129Z,89.23
2018-05-27T01:47:59.040Z,89.32
2018-05-27T01:48:58.970Z,89.51
2018-05-27T01:49:58.880Z,89.23
2018-05-27T01:50:58.805Z,89.51
2018-05-27T01:51:58.730Z,89.23
2018-05-27T01:52:58.642Z,89.42
2018-05-27T01:53:58.568Z,89.61
2018-05-27T01:54:58.496Z,89.42
2018-05-27T01:55:58.417Z,89.42
2018-05-27T01:56:58.331Z,89.23
2018-05-27T01:57:58.256Z,89.51
2018-05-27T01:58:58.182Z,89.23
2018-05-27T01:59:58.111Z,89.13
2018-05-27T02:00:58.017Z,89.04
2018-05-27T02:01:57.943Z,88.56
2018-05-27T02:02:57.881Z,89.23
2018-05-27T02:03:57.783Z,89.04
2018-05-27T02:04:57.713Z,89.23
2018-05-27T02:05:57.636Z,89.13
2018-05-27T02:06:57.558Z,89.13
2018-05-27T02:07:57.483Z,88.46
2018-05-27T02:08:57.394Z,88.80
2018-05-27T02:09:57.320Z,88.13
2018-05-27T02:10:57.244Z,88.32
2018-05-27T02:11:57.157Z,88.03
2018-05-27T02:12:57.083Z,87.37
2018-05-27T02:13:57.014Z,87.74
2018-05-27T02:14:56.921Z,87.37
2018-05-27T02:15:56.844Z,86.88
2018-05-27T02:16:56.771Z,87.08
2018-05-27T02:17:56.695Z,86.98
2018-05-27T02:18:56.608Z,86.88
2018-05-27T02:19:56.532Z,86.79
2018-05-27T02:20:56.459Z,86.88
2018-05-27T02:21:56.383Z,86.79
2018-05-27T02:22:56.295Z,86.88
2018-05-27T02:23:56.220Z,86.60
2018-05-27T02:24:56.147Z,86.31
2018-05-27T02:25:56.084Z,86.02
2018-05-27T02:26:55.985Z,85.93
2018-05-27T02:27:55.909Z,85.64
2018-05-27T02:28:55.835Z,85.83
2018-05-27T02:29:55.746Z,85.06
2018-05-27T02:30:55.671Z,84.68
2018-05-27T02:31:55.597Z,84.78
2018-05-27T02:32:55.510Z,84.20
2018-05-27T02:33:55.435Z,84.20
2018-05-27T02:34:55.360Z,84.30
2018-05-27T02:35:55.285Z,84.20
2018-05-27T02:36:55.197Z,83.82
2018-05-27T02:37:55.125Z,84.16
2018-05-27T02:38:55.050Z,83.63
2018-05-27T02:39:54.961Z,83.53
2018-05-27T02:40:54.894Z,83.53
2018-05-27T02:41:54.811Z,83.92
2018-05-27T02:42:54.736Z,83.53
2018-05-27T02:43:54.661Z,83.05
2018-05-27T02:44:54.573Z,83.25
2018-05-27T02:45:54.501Z,83.82
2018-05-27T02:46:54.411Z,83.25
2018-05-27T02:47:54.341Z,83.05
2018-05-27T02:48:54.262Z,83.34
2018-05-27T02:49:54.175Z,83.34
2018-05-27T02:50:54.108Z,83.25
2018-05-27T02:51:54.027Z,83.05
2018-05-27T02:52:53.950Z,83.53
2018-05-27T02:53:53.862Z,83.05
2018-05-27T02:54:53.788Z,82.86
2018-05-27T02:55:53.717Z,83.25
2018-05-27T02:56:53.626Z,83.15
2018-05-27T02:57:53.556Z,83.34
2018-05-27T02:58:53.474Z,83.05
2018-05-27T02:59:53.399Z,82.96
2018-05-27T03:00:53.313Z,82.29
2018-05-27T03:01:53.237Z,81.90
2018-05-27T03:02:53.163Z,82.00
2018-05-27T03:03:53.075Z,81.81
2018-05-27T03:04:53.000Z,81.33
2018-05-27T03:05:52.925Z,81.43
2018-05-27T03:06:52.857Z,81.43
2018-05-27T03:07:52.764Z,81.43
2018-05-27T03:08:52.689Z,81.33
2018-05-27T03:09:52.621Z,81.33
2018-05-27T03:10:52.525Z,81.23
2018-05-27T03:11:52.450Z,80.37
2018-05-27T03:12:52.375Z,80.66
2018-05-27T03:13:52.290Z,80.76
2018-05-27T03:14:52.215Z,80.56
2018-05-27T03:15:52.139Z,80.37
2018-05-27T03:16:52.064Z,81.00
2018-05-27T03:17:51.976Z,80.76
2018-05-27T03:18:51.902Z,80.76
2018-05-27T03:19:51.826Z,80.56
2018-05-27T03:20:51.739Z,80.08
2018-05-27T03:21:51.664Z,79.99
2018-05-27T03:22:51.592Z,80.08
2018-05-27T03:23:51.501Z,80.27
2018-05-27T03:24:51.427Z,80.27
2018-05-27T03:25:51.352Z,80.18
2018-05-27T03:26:51.277Z,79.99
2018-05-27T03:27:51.192Z,80.08
2018-05-27T03:28:51.118Z,80.18
2018-05-27T03:29:51.040Z,80.04
2018-05-27T03:30:50.954Z,79.60
2018-05-27T03:31:50.879Z,79.51
2018-05-27T03:32:50.802Z,79.47
2018-05-27T03:33:50.720Z,79.47
2018-05-27T03:34:50.641Z,78.89
2018-05-27T03:35:50.567Z,78.80
2018-05-27T03:36:50.491Z,78.61
2018-05-27T03:37:50.403Z,78.70
2018-05-27T03:38:50.329Z,78.51
2018-05-27T03:39:50.242Z,78.99
2018-05-27T03:40:50.166Z,78.93
2018-05-27T03:41:50.093Z,78.70
2018-05-27T03:42:50.025Z,77.88
2018-05-27T03:43:49.929Z,78.61
2018-05-27T03:44:49.856Z,78.51
2018-05-27T03:45:49.780Z,78.74
2018-05-27T03:46:49.693Z,79.13
2018-05-27T03:47:49.617Z,79.80
2018-05-27T03:48:49.545Z,79.95
2018-05-27T03:49:49.456Z,79.89
2018-05-27T03:50:49.379Z,79.13
2018-05-27T03:51:49.304Z,79.32
2018-05-27T03:52:49.230Z,79.51
2018-05-27T03:53:49.143Z,79.51
2018-05-27T03:54:49.070Z,79.60
2018-05-27T03:55:48.993Z,79.99
2018-05-27T03:56:48.905Z,79.89
2018-05-27T03:57:48.832Z,79.89
2018-05-27T03:58:48.760Z,79.99
2018-05-27T03:59:48.670Z,79.80
2018-05-27T04:00:48.594Z,79.80
2018-05-27T04:01:48.520Z,79.80
2018-05-27T04:02:48.434Z,79.70
2018-05-27T04:03:48.355Z,79.13
2018-05-27T04:04:48.282Z,79.89
2018-05-27T04:05:48.206Z,79.89
2018-05-27T04:06:48.122Z,79.99
2018-05-27T04:07:48.046Z,79.70
2018-05-27T04:08:47.970Z,79.22
2018-05-27T04:09:47.882Z,79.70
2018-05-27T04:10:47.809Z,79.32
2018-05-27T04:11:47.736Z,79.32
2018-05-27T04:12:47.667Z,80.37
2018-05-27T04:13:47.571Z,79.80
2018-05-27T04:14:47.499Z,79.99
2018-05-27T04:15:47.420Z,80.47
2018-05-27T04:16:47.338Z,80.56
2018-05-27T04:17:47.276Z,80.56
2018-05-27T04:18:47.182Z,81.04
2018-05-27T04:19:47.096Z,80.85
2018-05-27T04:20:47.035Z,80.66
2018-05-27T04:21:46.946Z,80.66
2018-05-27T04:22:46.874Z,80.76
2018-05-27T04:23:46.805Z,80.79
2018-05-27T04:24:46.708Z,81.46
2018-05-27T04:25:46.634Z,82.52
2018-05-27T04:26:46.573Z,83.19
2018-05-27T04:27:46.476Z,83.86
2018-05-27T04:28:46.400Z,83.76
2018-05-27T04:29:46.322Z,83.58
2018-05-27T04:30:46.234Z,83.67
2018-05-27T04:31:46.173Z,83.58
2018-05-27T04:32:46.084Z,84.63
2018-05-27T04:33:46.009Z,84.25
2018-05-27T04:34:45.934Z,85.34
2018-05-27T04:35:45.848Z,85.34
2018-05-27T04:36:45.772Z,87.07
2018-05-27T04:37:45.686Z,88.45
2018-05-27T04:38:45.610Z,90.42
2018-05-27T04:39:45.535Z,90.80
2018-05-27T04:40:45.473Z,92.00
2018-05-27T04:41:45.373Z,91.81
2018-05-27T04:42:45.298Z,92.57
2018-05-27T04:43:45.224Z,93.05
2018-05-27T04:44:45.148Z,92.91
2018-05-27T04:45:45.074Z,92.81
2018-05-27T04:46:44.985Z,92.96
2018-05-27T04:47:44.914Z,93.15
2018-05-27T04:48:44.837Z,93.53
2018-05-27T04:49:44.754Z,93.19
2018-05-27T04:50:44.673Z,93.19
2018-05-27T04:51:44.599Z,93.19
2018-05-27T04:52:44.531Z,93.19
2018-05-27T04:53:44.438Z,92.61
2018-05-27T04:54:44.361Z,92.52
2018-05-27T04:55:44.285Z,93.29
2018-05-27T04:56:44.212Z,92.52
2018-05-27T04:57:44.139Z,92.38
2018-05-27T04:58:44.061Z,91.56
2018-05-27T04:59:43.976Z,92.14
2018-05-27T05:00:43.900Z,91.95
2018-05-27T05:01:43.828Z,90.66
2018-05-27T05:02:43.750Z,90.66
2018-05-27T05:03:43.675Z,90.66
2018-05-27T05:04:43.587Z,90.66
2018-05-27T05:05:43.514Z,89.22
2018-05-27T05:06:43.438Z,90.56
2018-05-27T05:07:43.376Z,90.84
2018-05-27T05:08:43.288Z,90.27
2018-05-27T05:09:43.201Z,91.90
2018-05-27T05:10:43.138Z,90.84
2018-05-27T05:11:43.051Z,91.04
2018-05-27T05:12:42.977Z,90.08
2018-05-27T05:13:42.901Z,91.13
2018-05-27T05:14:42.828Z,91.23
2018-05-27T05:15:42.738Z,91.81
2018-05-27T05:16:42.663Z,91.04
2018-05-27T05:17:42.588Z,90.27
2018-05-27T05:18:42.514Z,90.66
2018-05-27T05:19:42.439Z,91.81
2018-05-27T05:20:42.352Z,91.13
2018-05-27T05:21:42.277Z,90.84
2018-05-27T05:22:42.202Z,91.04
2018-05-27T05:23:42.129Z,90.51
2018-05-27T05:24:42.053Z,91.08
2018-05-27T05:25:41.978Z,91.18
2018-05-27T05:26:41.889Z,89.54
2018-05-27T05:27:41.855Z,91.56
2018-05-27T05:28:41.740Z,91.47
2018-05-27T05:29:41.665Z,91.56
2018-05-27T05:30:41.591Z,91.95
2018-05-27T05:31:41.504Z,91.95
2018-05-27T05:32:41.433Z,90.89
2018-05-27T05:33:41.354Z,91.85
2018-05-27T05:34:41.279Z,91.37
2018-05-27T05:35:41.204Z,90.80
2018-05-27T05:36:41.134Z,91.47
2018-05-27T05:37:41.041Z,91.56
2018-05-27T05:38:40.966Z,90.60
2018-05-27T05:39:40.891Z,91.95
2018-05-27T05:40:40.816Z,90.60
2018-05-27T05:41:40.742Z,91.08
2018-05-27T05:42:40.680Z,90.51
2018-05-27T05:43:40.599Z,90.12
2018-05-27T05:44:40.505Z,90.89
2018-05-27T05:45:40.431Z,92.09
2018-05-27T05:46:40.354Z,91.28
2018-05-27T05:47:40.281Z,92.96
2018-05-27T05:48:40.193Z,91.61
2018-05-27T05:49:40.117Z,92.29
2018-05-27T05:50:40.042Z,91.42
2018-05-27T05:51:39.968Z,91.32
2018-05-27T05:52:39.893Z,91.90
2018-05-27T05:53:39.831Z,91.52
2018-05-27T05:54:39.732Z,91.22
2018-05-27T05:55:39.659Z,91.61
2018-05-27T05:56:39.581Z,91.61
2018-05-27T05:57:39.508Z,92.19
2018-05-27T05:58:39.432Z,91.22
2018-05-27T05:59:39.357Z,92.29
2018-05-27T06:00:39.269Z,91.13
2018-05-27T06:01:39.194Z,92.09
2018-05-27T06:02:39.119Z,91.71
2018-05-27T06:03:39.044Z,91.71
2018-05-27T06:04:38.970Z,91.13
2018-05-27T06:05:38.895Z,91.61
2018-05-27T06:06:38.820Z,91.90
2018-05-27T06:07:38.733Z,91.61
2018-05-27T06:08:38.659Z,91.56
2018-05-27T06:09:38.583Z,91.75
2018-05-27T06:10:38.508Z,91.17
2018-05-27T06:11:38.434Z,92.33
2018-05-27T06:12:38.358Z,91.36
2018-05-27T06:13:38.314Z,91.75
2018-05-27T06:14:38.196Z,92.04
2018-05-27T06:15:38.122Z,91.56
2018-05-27T06:16:38.045Z,91.66
2018-05-27T06:17:37.970Z,92.43
2018-05-27T06:18:37.896Z,91.36
2018-05-27T06:19:37.873Z,91.17
2018-05-27T06:20:37.746Z,91.08
2018-05-27T06:21:37.659Z,91.56
2018-05-27T06:22:37.589Z,91.27
2018-05-27T06:23:37.509Z,92.04
2018-05-27T06:24:37.435Z,92.08
2018-05-27T06:25:37.370Z,91.89
2018-05-27T06:26:37.285Z,91.70
2018-05-27T06:27:37.211Z,91.89
2018-05-27T06:28:37.124Z,91.51
2018-05-27T06:29:37.060Z,91.31
2018-05-27T06:30:36.972Z,91.46
2018-05-27T06:31:36.898Z,91.31
2018-05-27T06:32:36.822Z,91.80
2018-05-27T06:33:36.747Z,92.76
2018-05-27T06:34:36.672Z,91.51
2018-05-27T06:35:36.597Z,91.46
2018-05-27T06:36:36.522Z,91.60
2018-05-27T06:37:36.436Z,91.99
2018-05-27T06:38:36.361Z,91.56
2018-05-27T06:39:36.286Z,91.22
2018-05-27T06:40:36.211Z,91.03
2018-05-27T06:41:36.136Z,91.70
2018-05-27T06:42:36.061Z,91.80
2018-05-27T06:43:35.987Z,90.93
2018-05-27T06:44:35.912Z,91.46
2018-05-27T06:45:35.836Z,91.65
2018-05-27T06:46:35.751Z,90.97
2018-05-27T06:47:35.674Z,92.03
2018-05-27T06:48:35.599Z,90.78
2018-05-27T06:49:35.526Z,90.78
2018-05-27T06:50:35.463Z,89.96
2018-05-27T06:51:35.374Z,91.12
2018-05-27T06:52:35.300Z,91.41
2018-05-27T06:53:35.224Z,90.73
2018-05-27T06:54:35.152Z,91.12
2018-05-27T06:55:35.075Z,90.34
2018-05-27T06:56:34.989Z,89.96
2018-05-27T06:57:34.925Z,89.86
2018-05-27T06:58:34.839Z,90.10
2018-05-27T06:59:34.764Z,89.96
2018-05-27T07:00:34.688Z,90.10
2018-05-27T07:01:34.613Z,90.10
2018-05-27T07:02:34.539Z,90.30
2018-05-27T07:03:34.463Z,89.62
2018-05-27T07:04:34.460Z,89.81
2018-05-27T07:05:34.314Z,90.00
2018-05-27T07:06:34.240Z,90.00
2018-05-27T07:07:34.169Z,89.57
2018-05-27T07:08:34.090Z,89.14
2018-05-27T07:09:34.014Z,88.60
2018-05-27T07:10:33.940Z,89.81
2018-05-27T07:11:33.883Z,88.07
2018-05-27T07:12:33.778Z,88.36
2018-05-27T07:13:33.715Z,88.07
2018-05-27T07:14:33.628Z,88.11
2018-05-27T07:15:33.552Z,88.21
2018-05-27T07:16:33.476Z,88.02
2018-05-27T07:17:33.402Z,87.53
2018-05-27T07:18:33.326Z,87.48
2018-05-27T07:19:33.253Z,86.13
2018-05-27T07:21:33.103Z,85.69
2018-05-27T07:22:33.028Z,85.21
2018-05-27T07:23:32.952Z,85.49
2018-05-27T07:24:32.880Z,84.20
2018-05-27T07:25:32.804Z,83.66
2018-05-27T07:26:32.742Z,83.66
2018-05-27T07:27:32.666Z,82.79
2018-05-27T07:28:32.591Z,82.83
2018-05-27T07:29:32.517Z,82.33
2018-05-27T07:30:32.441Z,79.52
2018-05-27T07:31:32.367Z,77.82
2018-05-27T07:32:32.303Z,73.79
2018-05-27T07:33:32.241Z,72.92
2018-05-27T07:34:32.198Z,70.27
2018-05-27T07:35:32.078Z,69.82
2018-05-27T07:36:32.004Z,68.95
2018-05-27T07:37:31.942Z,70.15
2018-05-27T07:38:31.866Z,67.14
2018-05-27T07:39:31.792Z,67.57
2018-05-27T07:40:31.716Z,66.08
2018-05-27T07:41:31.654Z,65.05
2018-05-27T07:42:31.592Z,64.56
2018-05-27T07:43:31.504Z,62.10
2018-05-27T07:44:31.447Z,61.19
2018-05-27T07:45:31.367Z,61.22
2018-05-27T07:46:31.308Z,58.76
2018-05-27T07:47:31.230Z,57.69
2018-05-27T07:48:31.156Z,58.21
2018-05-27T07:49:31.095Z,59.61
2018-05-27T07:50:31.029Z,58.44
2018-05-27T07:51:30.956Z,57.25
2018-05-27T07:52:30.943Z,57.86
2018-05-27T07:53:30.823Z,56.89
2018-05-27T07:54:30.754Z,57.04
2018-05-27T07:55:30.681Z,56.26
2018-05-27T07:56:30.621Z,56.56
2018-05-27T07:57:30.543Z,55.94
2018-05-27T07:58:30.522Z,56.95
2018-05-27T07:59:30.405Z,56.75
2018-05-27T08:00:30.344Z,55.29
2018-05-27T08:01:30.268Z,54.64
2018-05-27T08:02:30.206Z,55.39
2018-05-27T08:03:30.143Z,57.01
2018-05-27T08:04:30.070Z,55.13
2018-05-27T08:05:30.010Z,53.99
2018-05-27T08:06:29.933Z,52.38
2018-05-27T08:07:29.870Z,52.06
2018-05-27T08:08:29.807Z,52.04
2018-05-27T08:09:29.733Z,53.01
2018-05-27T08:10:29.669Z,52.26
2018-05-27T08:11:29.607Z,52.04
2018-05-27T08:12:29.533Z,53.08
2018-05-27T08:13:29.470Z,53.59
2018-05-27T08:14:29.407Z,52.84
2018-05-27T08:15:29.345Z,51.19
2018-05-27T08:16:29.275Z,51.31
2018-05-27T08:17:29.209Z,51.73
2018-05-27T08:18:29.150Z,51.07
2018-05-27T08:19:29.072Z,50.14
2018-05-27T08:20:29.008Z,50.24
2018-05-27T08:21:28.946Z,51.04
2018-05-27T08:22:28.897Z,50.92
2018-05-27T08:23:28.809Z,50.80
2018-05-27T08:24:28.747Z,50.70
2018-05-27T08:25:28.684Z,50.87
2018-05-27T08:26:28.622Z,50.14
2018-05-27T08:27:28.559Z,50.07
2018-05-27T08:28:28.485Z,49.27
2018-05-27T08:29:28.422Z,48.22
2018-05-27T08:30:28.359Z,49.76
2018-05-27T08:31:28.298Z,48.78
2018-05-27T08:32:28.234Z,48.19
2018-05-27T08:33:28.161Z,49.39
2018-05-27T08:34:28.099Z,47.92
2018-05-27T08:35:28.034Z,48.49
2018-05-27T08:36:27.973Z,48.41
2018-05-27T08:37:27.911Z,47.17
2018-05-27T08:38:27.836Z,48.00
2018-05-27T08:39:27.774Z,48.10
2018-05-27T08:40:27.710Z,48.36
2018-05-27T08:41:27.649Z,48.27
2018-05-27T08:42:27.585Z,48.05
2018-05-27T08:43:27.570Z,49.90
2018-05-27T08:44:27.448Z,48.10
2018-05-27T08:45:27.388Z,49.07
2018-05-27T08:46:27.324Z,48.51
2018-05-27T08:47:27.261Z,47.71
2018-05-27T08:48:27.199Z,48.10
2018-05-27T08:49:27.136Z,48.12
2018-05-27T08:50:27.062Z,46.88
2018-05-27T08:51:27.000Z,46.81
2018-05-27T08:52:26.954Z,49.68
2018-05-27T08:53:26.882Z,49.37
2018-05-27T08:54:26.811Z,48.83
2018-05-27T08:55:26.749Z,47.83
2018-05-27T08:56:26.676Z,49.66
2018-05-27T08:57:26.612Z,48.80
2018-05-27T08:58:26.550Z,46.59
2018-05-27T08:59:26.501Z,46.49
2018-05-27T09:00:26.429Z,44.73
2018-05-27T09:01:26.419Z,44.76
2018-05-27T09:02:26.300Z,43.80
2018-05-27T09:03:26.226Z,43.24
2018-05-27T09:04:26.162Z,43.02
2018-05-27T09:05:26.100Z,42.36
2018-05-27T09:06:26.038Z,42.19
2018-05-27T09:07:25.977Z,42.48
2018-05-27T09:08:25.912Z,42.55
2018-05-27T09:09:25.852Z,42.09
2018-05-27T09:10:25.792Z,42.38
2018-05-27T09:11:25.727Z,42.85
2018-05-27T09:12:25.652Z,44.41
2018-05-27T09:13:25.589Z,42.75
2018-05-27T09:14:25.526Z,43.02
2018-05-27T09:15:25.509Z,42.85
2018-05-27T09:16:25.402Z,43.16
2018-05-27T09:17:25.339Z,44.04
2018-05-27T09:18:25.283Z,42.73
2018-05-27T09:19:25.245Z,43.16
2018-05-27T09:20:25.152Z,43.82
2018-05-27T09:21:25.089Z,43.80
2018-05-27T09:22:25.027Z,42.12
2018-05-27T09:23:24.966Z,43.43
2018-05-27T09:24:24.894Z,42.19
2018-05-27T09:25:24.839Z,40.92
2018-05-27T09:26:24.778Z,39.72
2018-05-27T09:27:24.708Z,40.04
2018-05-27T09:28:24.642Z,38.87
2018-05-27T09:29:24.578Z,39.96
2018-05-27T09:30:24.515Z,39.69
2018-05-27T09:31:24.454Z,39.49
2018-05-27T09:32:24.391Z,38.75
2018-05-27T09:33:24.329Z,39.62
2018-05-27T09:34:24.272Z,38.57
2018-05-27T09:35:24.204Z,37.00
2018-05-27T09:36:24.144Z,36.94
2018-05-27T09:37:24.079Z,38.01
2018-05-27T09:38:24.018Z,40.33
2018-05-27T09:39:23.955Z,42.08
2018-05-27T09:40:23.891Z,42.02
2018-05-27T09:41:23.829Z,43.12
2018-05-27T09:42:23.767Z,42.19
2018-05-27T09:43:23.704Z,37.70
2018-05-27T09:44:23.630Z,38.57
2018-05-27T09:45:23.639Z,39.82
2018-05-27T09:46:23.555Z,40.78
2018-05-27T09:47:23.442Z,40.58
2018-05-27T09:48:23.380Z,40.50
2018-05-27T09:49:23.305Z,40.48
2018-05-27T09:50:23.242Z,39.70
2018-05-27T09:51:23.188Z,40.68
2018-05-27T09:52:23.117Z,40.39
2018-05-27T09:53:23.043Z,40.41
2018-05-27T09:54:22.981Z,41.38
2018-05-27T09:55:22.918Z,41.33
2018-05-27T09:56:22.846Z,39.39
2018-05-27T09:57:22.782Z,39.33
2018-05-27T09:58:22.718Z,38.65
2018-05-27T09:59:22.644Z,37.37
2018-05-27T10:00:22.581Z,37.63
2018-05-27T10:01:22.520Z,39.23
2018-05-27T10:02:22.457Z,39.62
2018-05-27T10:03:22.382Z,38.86
2018-05-27T10:04:22.322Z,39.56
2018-05-27T10:05:22.260Z,38.68
2018-05-27T10:06:22.194Z,38.68
2018-05-27T10:07:22.119Z,39.64
2018-05-27T10:08:22.057Z,39.90
2018-05-27T10:09:21.994Z,39.08
2018-05-27T10:10:21.921Z,39.47
2018-05-27T10:11:21.858Z,40.68
2018-05-27T10:12:21.794Z,42.00
2018-05-27T10:13:21.721Z,42.20
2018-05-27T10:14:21.658Z,42.18
2018-05-27T10:15:21.596Z,42.08
2018-05-27T10:16:21.522Z,42.18
2018-05-27T10:17:21.459Z,43.27
2018-05-27T10:18:21.396Z,44.15
2018-05-27T10:19:21.333Z,42.79
2018-05-27T10:20:21.260Z,44.34
2018-05-27T10:21:21.195Z,44.24
2018-05-27T10:22:21.133Z,43.54
2018-05-27T10:23:21.064Z,44.01
2018-05-27T10:24:20.996Z,45.72
2018-05-27T10:25:20.923Z,45.23
2018-05-27T10:26:20.859Z,47.27
2018-05-27T10:27:20.797Z,46.88
2018-05-27T10:28:20.721Z,45.52
2018-05-27T10:29:20.663Z,45.32
2018-05-27T10:30:20.597Z,44.57
2018-05-27T10:31:20.524Z,44.30
2018-05-27T10:32:20.460Z,43.13
2018-05-27T10:33:20.390Z,44.13
2018-05-27T10:34:20.322Z,44.05
2018-05-27T10:35:20.260Z,42.96
2018-05-27T10:36:20.185Z,44.32
2018-05-27T10:37:20.125Z,42.98
2018-05-27T10:38:20.061Z,42.05
2018-05-27T10:39:19.986Z,41.27
2018-05-27T10:40:19.923Z,39.67
2018-05-27T10:41:19.848Z,38.12
2018-05-27T10:42:19.785Z,36.77
2018-05-27T10:43:19.723Z,36.00
2018-05-27T10:44:19.649Z,36.61
2018-05-27T10:45:19.587Z,36.72
2018-05-27T10:46:19.524Z,35.14
2018-05-27T10:47:19.448Z,34.57
2018-05-27T10:48:19.387Z,35.35
2018-05-27T10:49:19.325Z,34.21
2018-05-27T10:50:19.250Z,34.57
2018-05-27T10:51:19.188Z,34.83
2018-05-27T10:52:19.125Z,34.74
2018-05-27T10:53:19.062Z,34.74
2018-05-27T10:54:19.001Z,34.14
2018-05-27T10:55:18.926Z,34.52
2018-05-27T10:56:18.864Z,35.30
2018-05-27T10:57:18.800Z,34.58
2018-05-27T10:58:18.738Z,35.16
2018-05-27T10:59:18.691Z,36.34
2018-05-27T11:00:18.615Z,35.58
2018-05-27T11:01:18.563Z,36.49
2018-05-27T11:02:18.488Z,35.55
2018-05-27T11:03:18.425Z,34.81
2018-05-27T11:04:18.364Z,33.18
2018-05-27T11:05:18.301Z,33.28
2018-05-27T11:06:18.239Z,31.45
2018-05-27T11:07:18.176Z,30.85
2018-05-27T11:08:18.115Z,33.28
2018-05-27T11:09:18.052Z,32.38
2018-05-27T11:10:17.994Z,33.53
2018-05-27T11:11:17.926Z,32.78
2018-05-27T11:12:17.866Z,32.48
2018-05-27T11:13:17.814Z,32.97
2018-05-27T11:14:17.740Z,32.56
2018-05-27T11:15:17.677Z,32.97
2018-05-27T11:16:17.615Z,32.78
2018-05-27T11:17:17.552Z,31.41
2018-05-27T11:18:17.490Z,31.40
2018-05-27T11:19:17.429Z,32.27
2018-05-27T11:20:17.377Z,34.26
2018-05-27T11:21:17.316Z,38.01
2018-05-27T11:22:17.266Z,37.95
2018-05-27T11:23:17.198Z,36.00
2018-05-27T11:24:17.128Z,34.49
2018-05-27T11:25:17.066Z,33.15
2018-05-27T11:26:17.003Z,33.26
2018-05-27T11:27:16.942Z,33.29
2018-05-27T11:28:16.878Z,32.62
2018-05-27T11:29:16.833Z,32.15
2018-05-27T11:30:16.768Z,30.18
2018-05-27T11:31:16.703Z,30.17
2018-05-27T11:32:16.642Z,30.35
2018-05-27T11:33:16.579Z,30.50
2018-05-27T11:34:16.518Z,31.40
2018-05-27T11:35:16.454Z,32.32
2018-05-27T11:36:16.392Z,31.76
2018-05-27T11:37:16.329Z,32.35
2018-05-27T11:38:16.267Z,31.20
2018-05-27T11:39:16.205Z,32.14
2018-05-27T11:40:16.155Z,32.46
2018-05-27T11:41:16.093Z,32.41
2018-05-27T11:42:16.029Z,32.04
2018-05-27T11:43:15.967Z,33.79
2018-05-27T11:44:15.906Z,33.43
2018-05-27T11:45:15.843Z,34.77
2018-05-27T11:46:15.792Z,36.74
2018-05-27T11:47:15.718Z,36.27
2018-05-27T11:48:15.661Z,35.39
2018-05-27T11:49:15.606Z,36.14
2018-05-27T11:50:15.546Z,37.18
2018-05-27T11:51:15.481Z,37.75
2018-05-27T11:52:15.419Z,39.26
2018-05-27T11:53:15.356Z,39.92
2018-05-27T11:54:15.301Z,40.88
2018-05-27T11:55:15.231Z,40.27
2018-05-27T11:56:15.173Z,40.86
2018-05-27T11:57:15.106Z,40.86
2018-05-27T11:58:15.044Z,40.99
2018-05-27T11:59:14.981Z,40.88
2018-05-27T12:00:14.923Z,41.73
2018-05-27T12:01:14.870Z,42.96
2018-05-27T12:02:14.795Z,42.55
2018-05-27T12:03:14.719Z,43.93
2018-05-27T12:04:14.657Z,43.71
2018-05-27T12:05:14.597Z,44.79
2018-05-27T12:06:14.534Z,44.79
2018-05-27T12:07:14.476Z,44.96
2018-05-27T12:08:14.407Z,43.70
2018-05-27T12:09:14.434Z,43.79
2018-05-27T12:10:14.271Z,44.96
2018-05-27T12:11:14.211Z,43.79
2018-05-27T12:12:14.146Z,43.01
2018-05-27T12:13:14.084Z,42.43
2018-05-27T12:14:14.009Z,42.16
2018-05-27T12:15:13.947Z,42.72
2018-05-27T12:16:13.883Z,43.11
2018-05-27T12:17:13.822Z,44.94
2018-05-27T12:18:13.747Z,45.25
2018-05-27T12:19:13.686Z,43.19
2018-05-27T12:20:13.622Z,45.04
2018-05-27T12:21:13.547Z,45.40
2018-05-27T12:22:13.484Z,46.11
2018-05-27T12:23:13.424Z,45.40
2018-05-27T12:24:13.347Z,45.50
2018-05-27T12:25:13.284Z,45.21
2018-05-27T12:26:13.222Z,45.18
2018-05-27T12:27:13.148Z,46.96
2018-05-27T12:28:13.085Z,44.70
2018-05-27T12:29:13.025Z,43.63
2018-05-27T12:30:12.948Z,44.12
2018-05-27T12:31:12.888Z,43.15
2018-05-27T12:32:12.811Z,43.73
2018-05-27T12:33:12.748Z,44.97
2018-05-27T12:34:12.685Z,44.87
2018-05-27T12:35:12.614Z,43.80
2018-05-27T12:36:12.551Z,43.90
2018-05-27T12:37:12.474Z,44.85
2018-05-27T12:38:12.411Z,45.92
2018-05-27T12:39:12.336Z,44.46
2018-05-27T12:40:12.273Z,44.05
2018-05-27T12:41:12.200Z,43.66
2018-05-27T12:42:12.135Z,44.24
2018-05-27T12:43:12.063Z,46.38
2018-05-27T12:44:11.987Z,46.77
2018-05-27T12:45:11.925Z,45.87
2018-05-27T12:46:11.849Z,45.97
2018-05-27T12:47:11.786Z,46.75
2018-05-27T12:48:11.712Z,47.13
2018-05-27T12:49:11.637Z,45.39
2018-05-27T12:50:11.575Z,45.37
2018-05-27T12:51:11.499Z,46.82
2018-05-27T12:52:11.437Z,46.92